Time;durP1;ratioP1;P1;durP2;ratioP2;P2;SDS_P1;SDS_P2;PMS_P1;PMS_P2;Temp;Humidity;BMP_temperature;BMP_pressure;BME280_temperature;BME280_humidity;BME280_pressure;Samples;Min_cycle;Max_cycle;Signal;HPM_P1;HPM_P2
2022/01/26 00:07:47;;;;;;;10.93;8.25;;;;;;;2.85;100.00;100764.84;5034006;28;20036;-81
2022/01/26 00:10:13;;;;;;;10.70;7.97;;;;;;;2.91;100.00;100769.19;5033561;28;20393;-81
2022/01/26 00:12:38;;;;;;;10.23;7.43;;;;;;;2.90;100.00;100772.56;5033726;28;20030;-81
2022/01/26 00:15:04;;;;;;;9.18;6.60;;;;;;;2.93;100.00;100768.31;5015592;28;20018;-81
2022/01/26 00:17:29;;;;;;;9.18;6.65;;;;;;;2.88;100.00;100759.72;5015647;28;20036;-81
2022/01/26 00:20:07;;;;;;;7.80;6.13;;;;;;;2.91;100.00;100772.59;5015923;28;20017;-80
2022/01/26 00:25:38;;;;;;;8.15;5.93;;;;;;;2.90;100.00;100767.44;5033320;28;20068;-80
2022/01/26 00:28:32;;;;;;;7.68;5.82;;;;;;;2.85;100.00;100764.84;5015612;28;20442;-81
2022/01/26 00:38:39;;;;;;;8.43;6.68;;;;;;;2.88;100.00;100764.88;5033406;28;20448;-80
2022/01/26 00:41:10;;;;;;;7.55;6.47;;;;;;;2.85;100.00;100753.69;5015197;28;20026;-81
2022/01/26 00:43:38;;;;;;;8.90;7.10;;;;;;;2.87;100.00;100764.88;5015377;28;20047;-80
2022/01/26 00:46:06;;;;;;;8.43;7.15;;;;;;;2.84;100.00;100746.84;5014999;28;20026;-80
2022/01/26 00:48:33;;;;;;;8.82;7.40;;;;;;;2.83;100.00;100755.44;5015086;28;20069;-81
2022/01/26 00:51:03;;;;;;;8.65;7.15;;;;;;;2.85;100.00;100758.84;5015305;28;20425;-81
2022/01/26 00:53:38;;;;;;;9.23;7.03;;;;;;;2.75;100.00;100739.97;5033077;28;20061;-80
2022/01/26 00:56:05;;;;;;;9.15;7.90;;;;;;;2.75;100.00;100735.69;5015004;28;20079;-80
2022/01/26 00:58:31;;;;;;;9.40;7.65;;;;;;;2.83;100.00;100748.56;5032753;28;20112;-81
2022/01/26 01:00:59;;;;;;;9.63;7.60;;;;;;;2.84;100.00;100741.69;5014966;28;20476;-80
2022/01/26 01:03:25;;;;;;;13.30;8.60;;;;;;;2.86;100.00;100742.56;5042471;28;20049;-81
2022/01/26 01:08:23;;;;;;;10.07;8.27;;;;;;;2.88;100.00;100743.44;5052552;28;20435;-81
2022/01/26 01:10:51;;;;;;;10.65;7.45;;;;;;;2.78;100.00;100728.81;5051223;28;20037;-81
2022/01/26 01:13:22;;;;;;;10.63;7.63;;;;;;;2.84;100.00;100744.28;5052300;28;20033;-80
2022/01/26 01:15:50;;;;;;;11.20;7.35;;;;;;;2.83;100.00;100738.28;5051029;28;20379;-81
2022/01/26 01:18:30;;;;;;;10.52;7.63;;;;;;;2.82;100.00;100735.69;5051755;28;20029;-81
2022/01/26 01:31:30;;;;;;;9.48;7.55;;;;;;;2.79;100.00;100730.53;5009863;28;20041;-81
2022/01/26 01:33:55;;;;;;;9.02;7.05;;;;;;;2.80;100.00;100735.69;4993562;28;20050;-80
2022/01/26 01:36:22;;;;;;;7.88;6.45;;;;;;;2.76;100.00;100733.97;5009795;28;20038;-80
2022/01/26 01:38:48;;;;;;;7.78;6.45;;;;;;;2.75;100.00;100724.53;5009915;28;20061;-80
2022/01/26 01:41:13;;;;;;;8.90;7.97;;;;;;;2.73;100.00;100723.66;4993264;28;20389;-80
2022/01/26 01:43:39;;;;;;;11.90;7.95;;;;;;;2.66;100.00;100694.50;4970398;28;20031;-81
2022/01/26 01:46:06;;;;;;;9.15;6.88;;;;;;;2.71;100.00;100708.22;4970478;28;20047;-80
2022/01/26 01:48:33;;;;;;;7.85;6.47;;;;;;;2.80;100.00;100709.09;4970839;28;20046;-81
2022/01/26 01:51:03;;;;;;;8.20;6.45;;;;;;;2.73;100.00;100708.22;4954759;28;20030;-80
2022/01/26 01:56:24;;;;;;;9.82;7.57;;;;;;;2.63;100.00;100689.34;4932085;29;20038;-81
2022/01/26 01:58:50;;;;;;;8.77;6.82;;;;;;;2.65;100.00;100697.91;4932161;29;20047;-80
2022/01/26 02:01:15;;;;;;;9.43;7.03;;;;;;;2.74;100.00;100708.25;4931992;29;20040;-81
2022/01/26 02:03:41;;;;;;;10.65;8.45;;;;;;;2.80;100.00;100716.81;4931957;29;20052;-81
2022/01/26 02:06:06;;;;;;;11.25;7.82;;;;;;;2.67;100.00;100700.50;4931983;29;20032;-81
2022/01/26 02:08:32;;;;;;;8.95;7.32;;;;;;;2.76;100.00;100718.53;4943001;29;20043;-81
2022/01/26 02:10:57;;;;;;;9.75;7.00;;;;;;;2.74;100.00;100705.66;4951280;29;20054;-80
2022/01/26 02:13:28;;;;;;;10.30;7.20;;;;;;;2.80;100.00;100714.25;4951044;28;20059;-80
2022/01/26 02:18:35;;;;;;;9.65;7.68;;;;;;;2.84;100.00;100716.81;4970360;28;20046;-80
2022/01/26 02:54:00;;;;;;;9.60;8.13;;;;;;;2.77;100.00;100712.50;5051232;28;20032;-80
2022/01/26 03:04:09;;;;;;;11.07;7.93;;;;;;;2.63;100.00;100681.63;5054869;28;20587;-81
2022/01/26 03:06:43;;;;;;;11.20;8.88;;;;;;;2.79;100.00;100707.41;5052277;28;20079;-80
2022/01/26 03:09:13;;;;;;;9.60;7.97;;;;;;;2.80;100.00;100702.25;5035569;28;20484;-81
2022/01/26 03:11:41;;;;;;;10.35;7.78;;;;;;;2.62;100.00;100674.78;5035581;28;20080;-81
2022/01/26 03:16:46;;;;;;;8.40;7.22;;;;;;;2.76;100.00;100703.09;5052144;28;20041;-81
2022/01/26 03:35:04;;;;;;;9.07;6.82;;;;;;;2.69;100.00;100686.78;5052063;28;20416;-81
2022/01/26 03:37:37;;;;;;;8.10;6.72;;;;;;;2.76;100.00;100695.38;5052723;28;20037;-81
2022/01/26 03:40:12;;;;;;;7.82;6.28;;;;;;;2.69;100.00;100693.63;5052969;28;20031;-81
2022/01/26 03:42:37;;;;;;;6.55;5.78;;;;;;;2.70;100.00;100691.09;5054248;28;20036;-81
2022/01/26 03:45:03;;;;;;;7.20;5.93;;;;;;;2.74;100.00;100695.38;5052933;28;20029;-81
2022/01/26 03:47:28;;;;;;;8.30;6.82;;;;;;;2.74;100.00;100697.94;5052494;28;20078;-81
2022/01/26 03:49:54;;;;;;;7.63;6.45;;;;;;;2.72;100.00;100697.06;5052544;28;20499;-81
2022/01/26 03:52:19;;;;;;;8.70;6.68;;;;;;;2.61;100.00;100674.75;5052664;28;20064;-81
2022/01/26 03:54:44;;;;;;;8.95;6.93;;;;;;;2.67;100.00;100688.50;5054144;28;20025;-81
2022/01/26 03:57:10;;;;;;;8.27;6.43;;;;;;;2.64;100.00;100688.47;5054007;28;20029;-81
2022/01/26 03:59:35;;;;;;;6.90;6.18;;;;;;;2.73;100.00;100700.50;5052322;28;20556;-81
2022/01/26 04:02:01;;;;;;;7.40;6.07;;;;;;;2.72;100.00;100701.38;5052364;28;20041;-81
2022/01/26 04:04:29;;;;;;;6.97;6.15;;;;;;;2.74;100.00;100704.81;5053601;28;20625;-81
2022/01/26 04:06:55;;;;;;;7.15;6.10;;;;;;;2.72;100.00;100706.50;5053468;28;20036;-80
2022/01/26 04:09:20;;;;;;;7.68;6.00;;;;;;;2.69;100.00;100703.91;5053418;28;20384;-81
2022/01/26 04:11:49;;;;;;;6.43;5.70;;;;;;;2.69;100.00;100712.50;5052459;28;20056;-81
2022/01/26 04:14:17;;;;;;;7.38;6.22;;;;;;;2.67;100.00;100703.94;5052092;28;20025;-80
2022/01/26 04:16:43;;;;;;;7.93;6.60;;;;;;;2.66;100.00;100702.22;5052234;28;20029;-81
2022/01/26 04:19:10;;;;;;;6.78;5.97;;;;;;;2.69;100.00;100703.91;5053372;28;20032;-81
2022/01/26 04:26:57;;;;;;;7.78;6.03;;;;;;;2.74;100.00;100707.38;5053624;28;20037;-81
2022/01/26 04:29:22;;;;;;;6.97;5.68;;;;;;;2.71;100.00;100703.09;5052680;28;20040;-81
2022/01/26 04:31:48;;;;;;;8.43;6.60;;;;;;;2.68;100.00;100704.78;5053474;28;20025;-81
2022/01/26 04:34:13;;;;;;;7.65;6.13;;;;;;;2.68;100.00;100697.06;5051765;28;20469;-81
2022/01/26 04:36:47;;;;;;;6.38;5.30;;;;;;;2.66;100.00;100689.34;5051797;28;20087;-81
2022/01/26 04:39:17;;;;;;;7.10;6.22;;;;;;;2.71;100.00;100687.66;5051753;28;20120;-81
2022/01/26 04:41:49;;;;;;;7.88;6.10;;;;;;;2.69;100.00;100701.34;5051768;28;20025;-81
2022/01/26 04:44:21;;;;;;;7.20;5.82;;;;;;;2.69;100.00;100702.19;5052967;28;20017;-81
2022/01/26 04:46:48;;;;;;;7.93;6.15;;;;;;;2.69;100.00;100697.06;5052951;28;20488;-81
2022/01/26 04:49:13;;;;;;;6.93;5.78;;;;;;;2.74;100.00;100699.66;5051803;28;20032;-80
2022/01/26 04:51:38;;;;;;;6.43;5.70;;;;;;;2.64;100.00;100675.63;5051482;28;20036;-80
2022/01/26 04:54:04;;;;;;;7.38;6.03;;;;;;;2.71;100.00;100682.50;5052827;28;20029;-80
2022/01/26 04:56:29;;;;;;;6.05;5.43;;;;;;;2.60;100.00;100666.19;5051158;28;20056;-81
2022/01/26 04:58:54;;;;;;;6.60;5.65;;;;;;;2.69;100.00;100686.78;5052896;28;20439;-80
2022/01/26 05:01:20;;;;;;;7.25;5.82;;;;;;;2.72;100.00;100691.06;5051324;28;20120;-80
2022/01/26 05:03:45;;;;;;;6.80;5.45;;;;;;;2.69;100.00;100676.47;5051362;28;20151;-81
2022/01/26 05:06:12;;;;;;;6.30;5.53;;;;;;;2.65;100.00;100669.59;5051446;28;20563;-81
2022/01/26 05:08:37;;;;;;;7.50;5.85;;;;;;;2.66;100.00;100673.94;5051085;28;20414;-81
2022/01/26 05:11:04;;;;;;;7.15;5.70;;;;;;;2.69;100.00;100671.34;5051256;28;20032;-81
2022/01/26 05:13:29;;;;;;;6.70;5.70;;;;;;;2.73;100.00;100677.34;5050948;28;20026;-81
2022/01/26 05:15:55;;;;;;;8.40;7.07;;;;;;;2.66;100.00;100662.78;5051325;28;20032;-81
2022/01/26 05:18:20;;;;;;;8.18;6.53;;;;;;;2.72;100.00;100668.78;5050666;28;20397;-81
2022/01/26 05:20:46;;;;;;;7.38;5.88;;;;;;;2.64;100.00;100660.19;5050544;28;20116;-80
2022/01/26 05:23:11;;;;;;;8.75;7.00;;;;;;;2.61;100.00;100649.03;5050898;28;20064;-82
2022/01/26 05:25:37;;;;;;;8.27;6.75;;;;;;;2.68;100.00;100659.34;5052053;28;20442;-80
2022/01/26 05:28:02;;;;;;;8.50;6.80;;;;;;;2.70;100.00;100667.94;5052484;28;20044;-81
2022/01/26 05:30:28;;;;;;;8.40;6.70;;;;;;;2.74;100.00;100663.66;5050748;28;20050;-80
2022/01/26 05:32:53;;;;;;;9.73;6.82;;;;;;;2.66;100.00;100649.91;5052517;28;20376;-81
2022/01/26 05:35:19;;;;;;;9.10;6.97;;;;;;;2.58;100.00;100647.31;5029449;28;20040;-81
2022/01/26 05:37:44;;;;;;;7.75;5.75;;;;;;;2.70;100.00;100667.94;5013217;28;20041;-81
2022/01/26 05:40:11;;;;;;;8.48;6.70;;;;;;;2.71;100.00;100661.91;5013070;28;20037;-80
2022/01/26 05:42:37;;;;;;;8.05;6.50;;;;;;;2.70;100.00;100661.94;5012901;28;20590;-80
2022/01/26 05:45:07;;;;;;;9.07;7.35;;;;;;;2.70;100.00;100659.34;5013110;28;20030;-81
2022/01/26 05:47:33;;;;;;;11.27;8.05;;;;;;;2.69;100.00;100653.31;5012841;28;20062;-81
2022/01/26 05:50:00;;;;;;;16.40;10.90;;;;;;;2.68;100.00;100648.19;5012943;28;20053;-81
2022/01/26 05:52:25;;;;;;;19.33;12.43;;;;;;;2.61;100.00;100633.59;5029197;28;20025;-81
2022/01/26 05:54:51;;;;;;;16.60;11.20;;;;;;;2.68;100.00;100640.47;5029824;28;20520;-81
2022/01/26 05:57:16;;;;;;;16.80;11.82;;;;;;;2.69;100.00;100647.31;5029891;28;20033;-81
2022/01/26 05:59:41;;;;;;;12.95;9.38;;;;;;;2.66;100.00;100645.63;5029507;28;20036;-81
2022/01/26 06:02:07;;;;;;;9.60;7.80;;;;;;;2.64;100.00;100639.59;5012655;28;20485;-81
2022/01/26 06:04:33;;;;;;;9.77;7.93;;;;;;;2.63;100.00;100643.03;5012779;28;20026;-79
2022/01/26 06:06:59;;;;;;;11.15;9.07;;;;;;;2.66;100.00;100649.91;5027360;28;20038;-79
2022/01/26 06:09:24;;;;;;;9.93;8.15;;;;;;;2.59;100.00;100643.91;5045768;28;20025;-79
2022/01/26 06:11:50;;;;;;;8.27;7.05;;;;;;;2.65;100.00;100649.03;5048827;28;20033;-79
2022/01/26 06:14:16;;;;;;;7.35;5.93;;;;;;;2.63;100.00;100648.19;5030744;28;20088;-79
2022/01/26 06:16:41;;;;;;;7.90;5.70;;;;;;;2.64;100.00;100649.03;5031909;28;20156;-79
2022/01/26 06:19:06;;;;;;;7.45;5.80;;;;;;;2.69;100.00;100657.63;5030366;28;20036;-79
2022/01/26 06:21:32;;;;;;;8.30;6.55;;;;;;;2.70;100.00;100655.06;5031397;28;20511;-78
2022/01/26 06:23:58;;;;;;;6.85;5.80;;;;;;;2.66;100.00;100650.78;5031531;28;20024;-78
2022/01/26 06:26:24;;;;;;;7.55;6.28;;;;;;;2.68;100.00;100659.34;5030296;28;20025;-79
2022/01/26 06:28:50;;;;;;;7.93;6.07;;;;;;;2.70;100.00;100665.34;5030422;28;20036;-79
2022/01/26 06:31:17;;;;;;;8.63;6.32;;;;;;;2.71;100.00;100661.06;5032511;28;20025;-78
2022/01/26 06:33:44;;;;;;;7.20;6.45;;;;;;;2.65;100.00;100646.47;5033923;28;20030;-78
2022/01/26 06:36:12;;;;;;;9.25;6.43;;;;;;;2.69;100.00;100655.91;5034217;28;20028;-78
2022/01/26 06:38:42;;;;;;;8.80;6.20;;;;;;;2.70;100.00;100651.63;5033719;28;20037;-79
2022/01/26 06:41:08;;;;;;;9.20;6.38;;;;;;;2.65;100.00;100643.88;5034127;28;20021;-78
2022/01/26 06:43:34;;;;;;;8.75;6.88;;;;;;;2.55;100.00;100631.88;5033937;28;20029;-78
2022/01/26 06:46:04;;;;;;;8.35;6.88;;;;;;;2.67;100.00;100638.78;5034161;28;20418;-79
2022/01/26 06:48:46;;;;;;;10.40;7.10;;;;;;;2.68;100.00;100641.34;5035034;28;20056;-78
2022/01/26 06:51:12;;;;;;;9.35;7.38;;;;;;;2.77;100.00;100652.50;5035181;28;20354;-81
2022/01/26 06:53:38;;;;;;;10.88;8.63;;;;;;;2.74;100.00;100643.94;5035099;28;20120;-81
2022/01/26 06:56:04;;;;;;;9.05;7.53;;;;;;;2.72;100.00;100634.47;5035259;28;20075;-81
2022/01/26 06:58:29;;;;;;;8.88;7.30;;;;;;;2.75;100.00;100637.06;5033471;28;20033;-81
2022/01/26 07:00:55;;;;;;;9.88;7.70;;;;;;;2.78;100.00;100652.47;5033773;28;20021;-81
2022/01/26 07:03:20;;;;;;;14.57;10.55;;;;;;;2.73;100.00;100642.19;5035214;28;20049;-81
2022/01/26 07:05:45;;;;;;;12.15;8.77;;;;;;;2.74;100.00;100645.66;5034661;28;20068;-81
2022/01/26 07:08:11;;;;;;;15.85;10.73;;;;;;;2.75;100.00;100647.34;5035066;28;20037;-81
2022/01/26 07:10:37;;;;;;;13.68;8.93;;;;;;;2.74;100.00;100648.22;5034800;28;20041;-81
2022/01/26 07:13:02;;;;;;;12.85;8.95;;;;;;;2.75;100.00;100649.94;5017170;28;20029;-81
2022/01/26 07:23:44;;;;;;;12.35;8.85;;;;;;;2.78;100.00;100657.63;5034782;28;20036;-80
2022/01/26 07:26:10;;;;;;;12.70;8.48;;;;;;;2.68;100.00;100645.63;5017062;28;20384;-81
2022/01/26 07:28:38;;;;;;;12.52;8.27;;;;;;;2.67;100.00;100654.19;5016497;28;20146;-80
2022/01/26 07:31:04;;;;;;;14.38;10.77;;;;;;;2.77;100.00;100657.63;5016943;28;20025;-81
2022/01/26 07:33:30;;;;;;;16.20;10.57;;;;;;;2.69;100.00;100639.63;5016475;28;20064;-81
2022/01/26 07:35:56;;;;;;;14.32;9.55;;;;;;;2.77;100.00;100652.50;5016731;28;20103;-81
2022/01/26 07:38:22;;;;;;;16.92;11.60;;;;;;;2.77;100.00;100649.91;5016389;28;20371;-82
2022/01/26 07:40:47;;;;;;;17.98;12.05;;;;;;;2.82;100.00;100656.78;5016371;28;20362;-81
2022/01/26 07:43:12;;;;;;;18.38;12.70;;;;;;;2.85;100.00;100653.34;5015529;28;20117;-81
2022/01/26 07:45:38;;;;;;;15.02;9.93;;;;;;;2.81;100.00;100654.22;5016310;28;20025;-81
2022/01/26 07:48:04;;;;;;;16.92;10.48;;;;;;;2.75;100.00;100644.78;5034283;28;20168;-81
2022/01/26 07:50:30;;;;;;;15.20;9.73;;;;;;;2.77;100.00;100655.91;5016163;28;20026;-81
2022/01/26 07:52:55;;;;;;;12.85;9.57;;;;;;;2.69;100.00;100640.47;5034099;28;20052;-81
2022/01/26 07:55:23;;;;;;;11.77;8.82;;;;;;;2.84;100.00;100661.94;5016301;28;20477;-81
2022/01/26 07:57:50;;;;;;;16.88;10.73;;;;;;;2.85;100.00;100648.22;5016097;28;20053;-80
2022/01/26 08:00:17;;;;;;;14.02;9.35;;;;;;;2.84;100.00;100657.66;5016301;28;20022;-81
2022/01/26 08:02:43;;;;;;;14.88;9.93;;;;;;;2.79;100.00;100653.38;5022131;28;20052;-81
2022/01/26 08:05:10;;;;;;;14.57;9.25;;;;;;;2.78;100.00;100655.06;5032707;28;20080;-81
2022/01/26 08:07:36;;;;;;;13.00;8.68;;;;;;;2.84;100.00;100660.22;5032262;28;20029;-81
2022/01/26 08:10:03;;;;;;;18.15;11.98;;;;;;;2.75;100.00;100631.91;5032392;28;20034;-81
2022/01/26 08:12:29;;;;;;;14.40;10.48;;;;;;;2.78;100.00;100633.63;5033358;28;20040;-81
2022/01/26 08:14:54;;;;;;;14.70;9.75;;;;;;;2.85;100.00;100643.91;5032618;28;20385;-81
2022/01/26 08:17:19;;;;;;;22.67;13.05;;;;;;;2.89;100.00;100655.94;5032392;28;20461;-81
2022/01/26 08:19:45;;;;;;;15.60;11.35;;;;;;;2.94;100.00;100651.63;5032079;28;20028;-81
2022/01/26 08:22:17;;;;;;;17.33;11.82;;;;;;;2.85;100.00;100638.78;5032241;28;20029;-81
2022/01/26 08:24:43;;;;;;;18.65;12.32;;;;;;;2.96;100.00;100649.09;5031976;28;20481;-81
2022/01/26 08:27:11;;;;;;;20.88;12.95;;;;;;;2.98;100.00;100655.09;5033383;28;20075;-81
2022/01/26 08:29:43;;;;;;;24.55;13.45;;;;;;;2.99;100.00;100660.25;5032112;28;20610;-81
2022/01/26 08:32:10;;;;;;;25.77;14.35;;;;;;;2.99;100.00;100656.78;5032124;28;20033;-81
2022/01/26 08:34:35;;;;;;;19.98;12.23;;;;;;;2.95;100.00;100645.66;5031742;28;20097;-82
2022/01/26 08:37:02;;;;;;;20.38;12.95;;;;;;;2.97;100.00;100649.06;5031880;28;20032;-82
2022/01/26 08:39:27;;;;;;;17.95;12.10;;;;;;;3.08;100.00;100654.25;5031460;28;20026;-81
2022/01/26 08:41:53;;;;;;;20.75;14.73;;;;;;;3.01;100.00;100644.78;5032047;28;20029;-81
2022/01/26 08:44:18;;;;;;;17.13;10.73;;;;;;;2.98;100.00;100639.63;5032000;28;20033;-81
2022/01/26 08:46:43;;;;;;;18.23;11.88;;;;;;;3.07;100.00;100646.50;5033156;28;20045;-81
2022/01/26 08:49:09;;;;;;;33.08;23.45;;;;;;;3.06;100.00;100655.94;5037258;28;20101;-81
2022/01/26 08:51:36;;;;;;;24.48;15.95;;;;;;;3.13;100.00;100655.09;5048802;28;20036;-81
2022/01/26 08:54:01;;;;;;;16.95;9.90;;;;;;;3.05;100.00;100643.09;5032726;28;20048;-81
2022/01/26 08:56:27;;;;;;;15.70;11.20;;;;;;;3.12;100.00;100655.06;5037310;28;20060;-81
2022/01/26 08:58:53;;;;;;;15.38;10.75;;;;;;;3.11;100.00;100659.38;5051551;28;20025;-81
2022/01/26 09:01:18;;;;;;;18.80;11.98;;;;;;;3.10;100.00;100659.38;5052725;28;20095;-81
2022/01/26 09:03:44;;;;;;;33.13;19.48;;;;;;;3.09;100.00;100655.94;5050949;28;20049;-81
2022/01/26 09:06:10;;;;;;;41.50;24.40;;;;;;;3.13;100.00;100670.53;5035303;28;20057;-81
2022/01/26 09:08:41;;;;;;;41.10;25.98;;;;;;;3.13;100.00;100670.53;5030961;28;20036;-81
2022/01/26 09:11:09;;;;;;;33.35;21.52;;;;;;;3.15;100.00;100666.22;5031518;28;20079;-81
2022/01/26 09:13:36;;;;;;;24.23;14.15;;;;;;;2.98;100.00;100643.06;5031241;28;20041;-81
2022/01/26 09:16:08;;;;;;;22.17;13.73;;;;;;;3.06;100.00;100667.97;5032618;28;20113;-81
2022/01/26 09:18:50;;;;;;;24.75;14.80;;;;;;;3.16;100.00;100675.69;5030998;28;20029;-81
2022/01/26 09:21:16;;;;;;;25.88;15.75;;;;;;;3.07;100.00;100656.78;5032193;28;20075;-81
2022/01/26 09:23:42;;;;;;;23.80;15.90;;;;;;;3.18;100.00;100668.81;5050534;28;20039;-81
2022/01/26 09:26:07;;;;;;;26.23;15.57;;;;;;;3.24;100.00;100671.41;5052191;28;20025;-81
2022/01/26 09:28:32;;;;;;;30.75;18.83;;;;;;;3.26;100.00;100663.66;5050663;28;20134;-81
2022/01/26 09:30:58;;;;;;;30.35;17.42;;;;;;;3.30;100.00;100669.69;5050831;28;20039;-81
2022/01/26 09:33:23;;;;;;;27.58;16.70;;;;;;;3.31;100.00;100669.66;5050497;28;20024;-81
2022/01/26 09:35:49;;;;;;;23.73;15.38;;;;;;;3.31;100.00;100667.09;5050513;28;20055;-81
2022/01/26 09:38:16;;;;;;;26.42;18.60;;;;;;;3.29;100.00;100670.50;5050930;28;20090;-81
2022/01/26 09:40:43;;;;;;;28.58;17.67;;;;;;;3.29;100.00;100655.06;5050541;28;20480;-81
2022/01/26 09:43:08;;;;;;;23.15;15.65;;;;;;;3.20;100.00;100640.47;5052052;28;20029;-82
2022/01/26 09:45:34;;;;;;;27.85;21.75;;;;;;;3.35;100.00;100660.22;5050725;28;20051;-81
2022/01/26 09:48:01;;;;;;;19.25;14.48;;;;;;;3.30;100.00;100646.50;5050593;28;20033;-81
2022/01/26 09:50:26;;;;;;;31.17;18.13;;;;;;;3.39;100.00;100661.94;5050212;28;20025;-81
2022/01/26 09:52:54;;;;;;;26.27;16.75;;;;;;;3.35;100.00;100653.34;5050685;28;20384;-82
2022/01/26 09:55:19;;;;;;;23.60;16.10;;;;;;;3.34;100.00;100645.66;5050676;28;20108;-82
2022/01/26 09:57:45;;;;;;;26.70;18.35;;;;;;;3.35;100.00;100653.34;5032374;28;20498;-81
2022/01/26 10:00:11;;;;;;;23.15;16.25;;;;;;;3.28;100.00;100630.19;5031800;28;20033;-81
2022/01/26 10:02:39;;;;;;;23.52;17.33;;;;;;;3.34;100.00;100645.66;5030212;28;20057;-82
2022/01/26 10:05:08;;;;;;;24.73;15.75;;;;;;;3.39;100.00;100644.78;5031938;28;20076;-81
2022/01/26 10:18:09;;;;;;;42.55;27.85;;;;;;;3.47;100.00;100619.84;5016027;28;20072;-82
2022/01/26 10:20:41;;;;;;;30.02;19.48;;;;;;;3.60;100.00;100636.16;4999381;28;20498;-81
2022/01/26 10:23:12;;;;;;;43.38;26.85;;;;;;;3.70;100.00;100635.25;5016052;28;20044;-81
2022/01/26 10:25:38;;;;;;;28.50;18.40;;;;;;;3.70;100.00;100630.09;5015794;28;20088;-81
2022/01/26 10:28:03;;;;;;;38.38;23.65;;;;;;;3.66;100.00;100609.50;5015947;28;20025;-81
2022/01/26 10:30:29;;;;;;;29.42;19.35;;;;;;;3.76;100.00;100626.66;5015838;28;20034;-81
2022/01/26 10:32:54;;;;;;;32.63;18.85;;;;;;;3.83;100.00;100623.19;4999489;28;20034;-81
2022/01/26 10:35:20;;;;;;;26.63;16.98;;;;;;;3.85;100.00;100621.47;5015666;28;20029;-81
2022/01/26 10:37:53;;;;;;;29.15;19.45;;;;;;;3.86;100.00;100615.44;4999169;28;20029;-81
2022/01/26 10:40:26;;;;;;;18.55;12.57;;;;;;;3.81;100.00;100612.03;4999326;28;20125;-81
2022/01/26 10:42:53;;;;;;;16.08;13.10;;;;;;;3.83;100.00;100617.16;4999560;28;20028;-81
2022/01/26 10:49:03;;;;;;;25.67;15.85;;;;;;;3.80;100.00;100618.06;4976471;28;20482;-81
2022/01/26 10:54:19;;;;;;;15.43;10.50;;;;;;;3.77;100.00;100609.47;5005127;28;20087;-81
2022/01/26 10:56:45;;;;;;;15.27;10.65;;;;;;;3.70;100.00;100613.78;5015397;28;20025;-81
2022/01/26 10:59:10;;;;;;;14.02;9.32;;;;;;;3.75;100.00;100625.81;4999001;28;20037;-81
2022/01/26 11:01:37;;;;;;;25.80;17.95;;;;;;;3.66;100.00;100607.78;5015033;28;20128;-81
2022/01/26 11:04:03;;;;;;;16.33;11.02;;;;;;;3.68;100.00;100615.53;5015614;28;20042;-81
2022/01/26 11:06:29;;;;;;;14.50;10.80;;;;;;;3.68;100.00;100615.53;5015289;28;20041;-81
2022/01/26 11:09:00;;;;;;;18.45;12.77;;;;;;;3.57;100.00;100605.22;5015687;28;20184;-81
2022/01/26 11:11:26;;;;;;;24.55;17.02;;;;;;;3.61;100.00;100609.50;5015278;28;20041;-81
2022/01/26 11:13:53;;;;;;;21.50;14.00;;;;;;;3.69;100.00;100614.66;5015611;28;20038;-81
2022/01/26 11:16:19;;;;;;;17.00;11.13;;;;;;;3.70;100.00;100613.78;5014606;28;20116;-81
2022/01/26 11:18:52;;;;;;;14.32;9.95;;;;;;;3.61;100.00;100595.78;5011322;28;20849;-81
2022/01/26 11:21:29;;;;;;;15.73;11.27;;;;;;;3.68;100.00;100610.38;5012319;28;20030;-81
2022/01/26 11:24:06;;;;;;;18.60;11.77;;;;;;;3.69;100.00;100604.34;5012427;28;20026;-81
2022/01/26 11:26:32;;;;;;;13.35;9.70;;;;;;;3.61;100.00;100608.66;5032758;28;20069;-81
2022/01/26 11:28:58;;;;;;;13.27;9.35;;;;;;;3.59;100.00;100605.25;5034639;28;20037;-81
2022/01/26 11:31:25;;;;;;;12.43;9.32;;;;;;;3.65;100.00;100602.63;5034279;28;20030;-82
2022/01/26 11:33:51;;;;;;;11.43;9.73;;;;;;;3.65;100.00;100607.78;5033146;28;20029;-81
2022/01/26 11:36:18;;;;;;;12.13;8.95;;;;;;;3.61;100.00;100600.94;5034514;28;20261;-81
2022/01/26 11:46:57;;;;;;;12.15;9.90;;;;;;;3.59;100.00;100590.66;5034357;28;20087;-82
2022/01/26 11:49:32;;;;;;;14.07;10.95;;;;;;;3.64;100.00;100599.22;5032831;28;20124;-82
2022/01/26 11:51:58;;;;;;;16.55;10.52;;;;;;;3.67;100.00;100601.78;5032941;28;20498;-82
2022/01/26 11:54:27;;;;;;;14.25;10.73;;;;;;;3.66;100.00;100594.03;5032599;28;20029;-81
2022/01/26 11:57:12;;;;;;;13.20;9.75;;;;;;;3.58;100.00;100591.50;5032547;28;20030;-81
2022/01/26 11:59:45;;;;;;;14.63;10.57;;;;;;;3.59;100.00;100594.94;5040277;28;20475;-81
2022/01/26 12:02:37;;;;;;;13.15;9.40;;;;;;;3.64;100.00;100603.50;5052418;28;20079;-82
2022/01/26 12:05:07;;;;;;;12.45;9.80;;;;;;;3.58;100.00;100606.97;5053858;28;20354;-81
2022/01/26 12:07:32;;;;;;;11.63;9.85;;;;;;;3.56;100.00;100605.25;5043916;28;20473;-82
2022/01/26 12:10:00;;;;;;;12.85;9.38;;;;;;;3.49;100.00;100588.94;5032134;28;20108;-81
2022/01/26 12:12:25;;;;;;;14.32;10.13;;;;;;;3.46;100.00;100592.41;5033589;28;20057;-82
2022/01/26 12:15:04;;;;;;;13.57;10.88;;;;;;;3.51;100.00;100597.53;5033689;28;20057;-82
2022/01/26 12:17:34;;;;;;;13.85;10.20;;;;;;;3.47;100.00;100600.97;5033338;28;20465;-81
2022/01/26 12:42:55;;;;;;;16.77;10.52;;;;;;;3.65;100.00;100575.16;4952758;29;20038;-81
2022/01/26 12:45:22;;;;;;;14.30;8.75;;;;;;;3.69;100.00;100581.16;4936517;29;20043;-81
2022/01/26 12:47:49;;;;;;;12.45;8.65;;;;;;;3.63;100.00;100589.78;4952475;29;20439;-81
2022/01/26 12:50:15;;;;;;;11.02;8.20;;;;;;;3.56;100.00;100577.78;4932969;29;20099;-81
2022/01/26 12:52:46;;;;;;;10.23;7.30;;;;;;;3.52;100.00;100576.06;4932998;29;20047;-82
2022/01/26 12:55:44;;;;;;;6.68;5.90;;;;;;;3.49;100.00;100578.63;4933134;29;20500;-82
2022/01/26 12:58:09;;;;;;;9.90;7.25;;;;;;;3.39;100.00;100575.25;4876640;29;20041;-81
2022/01/26 13:00:43;;;;;;;7.25;5.75;;;;;;;3.34;100.00;100578.69;4876238;29;20044;-82
2022/01/26 13:03:14;;;;;;;7.32;5.97;;;;;;;3.31;100.00;100574.41;4876267;29;20509;-81
2022/01/26 13:05:40;;;;;;;10.25;6.90;;;;;;;3.34;100.00;100574.41;4876274;29;20076;-81
2022/01/26 13:08:07;;;;;;;10.82;7.18;;;;;;;3.41;100.00;100586.41;4876417;29;20044;-81
2022/01/26 13:10:33;;;;;;;8.60;6.50;;;;;;;3.33;100.00;100554.66;4875938;29;20043;-81
2022/01/26 13:13:17;;;;;;;9.07;6.18;;;;;;;3.35;100.00;100558.09;4876417;29;20135;-82
2022/01/26 13:18:31;;;;;;;9.90;5.78;;;;;;;3.40;100.00;100563.22;4933026;29;20042;-82
2022/01/26 13:21:18;;;;;;;9.43;6.60;;;;;;;3.36;100.00;100533.19;4946798;28;20077;-82
2022/01/26 13:34:12;;;;;;;14.93;8.60;;;;;;;3.68;100.00;100551.97;5003346;28;20029;-81
2022/01/26 13:37:01;;;;;;;12.57;8.13;;;;;;;3.72;100.00;100553.66;5030711;28;20029;-81
2022/01/26 13:42:19;;;;;;;15.15;9.73;;;;;;;3.63;100.00;100545.13;5031975;28;20052;-81
2022/01/26 13:50:17;;;;;;;12.43;7.50;;;;;;;3.57;100.00;100551.13;5032610;28;20072;-83
2022/01/26 14:01:03;;;;;;;41.50;19.13;;;;;;;3.37;100.00;100540.94;4990246;28;20121;-80
2022/01/26 14:03:31;;;;;;;32.15;18.45;;;;;;;3.50;100.00;100562.34;4989941;28;20058;-80
2022/01/26 14:05:57;;;;;;;20.92;12.75;;;;;;;3.31;100.00;100535.78;4990132;28;20041;-81
2022/01/26 14:08:23;;;;;;;22.48;12.98;;;;;;;3.39;100.00;100551.22;4989762;28;20031;-81
2022/01/26 14:10:49;;;;;;;24.17;13.20;;;;;;;3.36;100.00;100551.22;4973833;28;20022;-81
2022/01/26 14:13:19;;;;;;;21.42;14.43;;;;;;;3.34;100.00;100556.38;4990109;28;20042;-82
2022/01/26 14:15:48;;;;;;;17.77;12.02;;;;;;;3.32;100.00;100552.06;4989991;28;20026;-81
2022/01/26 14:21:07;;;;;;;17.50;12.15;;;;;;;3.15;100.00;100546.97;4989943;28;20035;-79
2022/01/26 14:23:56;;;;;;;28.75;14.10;;;;;;;3.05;100.00;100538.41;4989712;28;20117;-80
2022/01/26 14:26:24;;;;;;;30.05;14.77;;;;;;;3.08;100.00;100553.84;4990009;28;20034;-79
2022/01/26 14:28:50;;;;;;;21.33;13.35;;;;;;;3.12;100.00;100571.00;4989961;28;20027;-80